sensor_id;sensor_type;location;lat;lon;timestamp;temperature;humidity
75819;DHT22;64453;51.944;9.796;2024-03-08T00:01:00;5.70;53.90
75819;DHT22;64453;51.944;9.796;2024-03-08T00:03:27;5.50;54.20
75819;DHT22;64453;51.944;9.796;2024-03-08T00:05:54;5.70;53.90
75819;DHT22;64453;51.944;9.796;2024-03-08T00:08:22;5.80;54.00
75819;DHT22;64453;51.944;9.796;2024-03-08T00:10:49;5.80;53.90
75819;DHT22;64453;51.944;9.796;2024-03-08T00:13:16;5.60;54.10
75819;DHT22;64453;51.944;9.796;2024-03-08T00:15:44;5.40;54.20
75819;DHT22;64453;51.944;9.796;2024-03-08T00:18:11;5.60;54.50
75819;DHT22;64453;51.944;9.796;2024-03-08T00:20:38;5.60;54.30
75819;DHT22;64453;51.944;9.796;2024-03-08T00:23:05;5.70;54.20
75819;DHT22;64453;51.944;9.796;2024-03-08T00:25:32;5.60;54.20
75819;DHT22;64453;51.944;9.796;2024-03-08T00:27:59;5.70;54.70
75819;DHT22;64453;51.944;9.796;2024-03-08T00:30:26;5.60;53.80
75819;DHT22;64453;51.944;9.796;2024-03-08T00:32:54;5.30;53.90
75819;DHT22;64453;51.944;9.796;2024-03-08T00:35:21;5.40;54.00
75819;DHT22;64453;51.944;9.796;2024-03-08T00:37:48;5.50;54.10
75819;DHT22;64453;51.944;9.796;2024-03-08T00:40:16;5.10;54.10
75819;DHT22;64453;51.944;9.796;2024-03-08T00:42:43;5.00;54.40
75819;DHT22;64453;51.944;9.796;2024-03-08T00:45:10;5.00;54.30
75819;DHT22;64453;51.944;9.796;2024-03-08T00:47:38;5.20;54.50
75819;DHT22;64453;51.944;9.796;2024-03-08T00:50:07;5.20;54.10
75819;DHT22;64453;51.944;9.796;2024-03-08T00:52:34;5.30;54.10
75819;DHT22;64453;51.944;9.796;2024-03-08T00:55:01;5.30;53.70
75819;DHT22;64453;51.944;9.796;2024-03-08T00:57:28;5.40;53.40
75819;DHT22;64453;51.944;9.796;2024-03-08T00:59:55;5.50;53.30
75819;DHT22;64453;51.944;9.796;2024-03-08T01:02:22;5.30;53.90
75819;DHT22;64453;51.944;9.796;2024-03-08T01:04:49;5.20;53.40
75819;DHT22;64453;51.944;9.796;2024-03-08T01:07:18;5.30;53.80
75819;DHT22;64453;51.944;9.796;2024-03-08T01:09:45;5.30;53.60
75819;DHT22;64453;51.944;9.796;2024-03-08T01:12:12;5.30;54.10
75819;DHT22;64453;51.944;9.796;2024-03-08T01:14:39;5.30;53.50
75819;DHT22;64453;51.944;9.796;2024-03-08T01:17:05;5.10;53.70
75819;DHT22;64453;51.944;9.796;2024-03-08T01:19:33;4.90;54.10
75819;DHT22;64453;51.944;9.796;2024-03-08T01:22:00;4.70;54.30
75819;DHT22;64453;51.944;9.796;2024-03-08T01:24:28;5.00;54.60
75819;DHT22;64453;51.944;9.796;2024-03-08T01:26:56;4.80;53.90
75819;DHT22;64453;51.944;9.796;2024-03-08T01:29:22;4.90;54.20
75819;DHT22;64453;51.944;9.796;2024-03-08T01:31:49;5.00;54.00
75819;DHT22;64453;51.944;9.796;2024-03-08T01:34:17;5.20;53.60
75819;DHT22;64453;51.944;9.796;2024-03-08T01:36:44;5.30;53.50
75819;DHT22;64453;51.944;9.796;2024-03-08T01:39:11;5.10;53.40
75819;DHT22;64453;51.944;9.796;2024-03-08T01:41:40;5.10;53.50
75819;DHT22;64453;51.944;9.796;2024-03-08T01:44:06;4.80;53.50
75819;DHT22;64453;51.944;9.796;2024-03-08T01:46:35;4.70;54.00
75819;DHT22;64453;51.944;9.796;2024-03-08T01:49:02;4.90;54.00
75819;DHT22;64453;51.944;9.796;2024-03-08T01:51:29;5.00;53.90
75819;DHT22;64453;51.944;9.796;2024-03-08T01:53:57;4.90;53.50
75819;DHT22;64453;51.944;9.796;2024-03-08T01:56:24;4.80;53.80
75819;DHT22;64453;51.944;9.796;2024-03-08T01:58:54;4.60;54.00
75819;DHT22;64453;51.944;9.796;2024-03-08T02:01:21;4.70;53.70
75819;DHT22;64453;51.944;9.796;2024-03-08T02:03:49;4.60;53.60
75819;DHT22;64453;51.944;9.796;2024-03-08T02:06:16;4.40;53.90
75819;DHT22;64453;51.944;9.796;2024-03-08T02:08:43;4.40;54.00
75819;DHT22;64453;51.944;9.796;2024-03-08T02:11:11;4.10;54.10
75819;DHT22;64453;51.944;9.796;2024-03-08T02:13:38;4.10;54.60
75819;DHT22;64453;51.944;9.796;2024-03-08T02:16:06;4.60;54.40
75819;DHT22;64453;51.944;9.796;2024-03-08T02:18:34;4.70;54.00
75819;DHT22;64453;51.944;9.796;2024-03-08T02:21:04;4.80;53.80
75819;DHT22;64453;51.944;9.796;2024-03-08T02:23:32;4.90;53.80
75819;DHT22;64453;51.944;9.796;2024-03-08T02:26:00;4.50;53.40
75819;DHT22;64453;51.944;9.796;2024-03-08T02:28:27;4.70;53.80
75819;DHT22;64453;51.944;9.796;2024-03-08T02:30:54;4.80;53.40
75819;DHT22;64453;51.944;9.796;2024-03-08T02:33:22;4.70;53.20
75819;DHT22;64453;51.944;9.796;2024-03-08T02:35:50;4.80;53.40
75819;DHT22;64453;51.944;9.796;2024-03-08T02:38:19;4.80;53.10
75819;DHT22;64453;51.944;9.796;2024-03-08T02:40:48;4.40;52.90
75819;DHT22;64453;51.944;9.796;2024-03-08T02:43:17;4.20;53.80
75819;DHT22;64453;51.944;9.796;2024-03-08T02:45:45;4.30;53.60
75819;DHT22;64453;51.944;9.796;2024-03-08T02:48:13;4.20;53.60
75819;DHT22;64453;51.944;9.796;2024-03-08T02:50:41;4.50;54.00
75819;DHT22;64453;51.944;9.796;2024-03-08T02:53:10;4.50;53.50
75819;DHT22;64453;51.944;9.796;2024-03-08T02:55:39;4.60;53.50
75819;DHT22;64453;51.944;9.796;2024-03-08T02:58:06;4.60;53.60
75819;DHT22;64453;51.944;9.796;2024-03-08T03:00:35;4.60;53.50
75819;DHT22;64453;51.944;9.796;2024-03-08T03:03:03;4.70;53.60
75819;DHT22;64453;51.944;9.796;2024-03-08T03:05:30;4.70;53.40
75819;DHT22;64453;51.944;9.796;2024-03-08T03:07:57;4.70;53.00
75819;DHT22;64453;51.944;9.796;2024-03-08T03:10:25;4.30;53.30
75819;DHT22;64453;51.944;9.796;2024-03-08T03:12:53;4.20;53.20
75819;DHT22;64453;51.944;9.796;2024-03-08T03:15:20;4.10;53.30
75819;DHT22;64453;51.944;9.796;2024-03-08T03:17:48;4.20;53.70
75819;DHT22;64453;51.944;9.796;2024-03-08T03:20:16;4.30;53.20
75819;DHT22;64453;51.944;9.796;2024-03-08T03:22:48;4.40;53.40
75819;DHT22;64453;51.944;9.796;2024-03-08T03:25:18;4.30;53.40
75819;DHT22;64453;51.944;9.796;2024-03-08T03:27:52;4.40;53.30
75819;DHT22;64453;51.944;9.796;2024-03-08T03:30:23;4.40;53.10
75819;DHT22;64453;51.944;9.796;2024-03-08T03:32:52;3.90;53.10
75819;DHT22;64453;51.944;9.796;2024-03-08T03:35:20;4.10;53.90
75819;DHT22;64453;51.944;9.796;2024-03-08T03:37:48;4.20;53.70
75819;DHT22;64453;51.944;9.796;2024-03-08T03:40:27;4.40;53.80
75819;DHT22;64453;51.944;9.796;2024-03-08T03:42:55;4.20;53.10
75819;DHT22;64453;51.944;9.796;2024-03-08T03:45:23;4.20;53.30
75819;DHT22;64453;51.944;9.796;2024-03-08T03:47:50;4.30;53.10
75819;DHT22;64453;51.944;9.796;2024-03-08T03:50:17;4.20;53.00
75819;DHT22;64453;51.944;9.796;2024-03-08T03:52:45;4.30;53.00
75819;DHT22;64453;51.944;9.796;2024-03-08T03:55:12;4.20;53.20
75819;DHT22;64453;51.944;9.796;2024-03-08T03:57:40;4.10;53.00
75819;DHT22;64453;51.944;9.796;2024-03-08T04:00:09;4.00;53.30
75819;DHT22;64453;51.944;9.796;2024-03-08T04:02:37;4.10;54.00
75819;DHT22;64453;51.944;9.796;2024-03-08T04:05:05;4.30;53.80
75819;DHT22;64453;51.944;9.796;2024-03-08T04:07:33;4.20;53.60
75819;DHT22;64453;51.944;9.796;2024-03-08T04:10:01;4.10;53.10
75819;DHT22;64453;51.944;9.796;2024-03-08T04:12:28;3.90;53.10
75819;DHT22;64453;51.944;9.796;2024-03-08T04:14:56;3.80;53.20
75819;DHT22;64453;51.944;9.796;2024-03-08T04:17:24;3.80;53.50
75819;DHT22;64453;51.944;9.796;2024-03-08T04:19:51;3.70;53.70
75819;DHT22;64453;51.944;9.796;2024-03-08T04:22:19;3.80;53.70
75819;DHT22;64453;51.944;9.796;2024-03-08T04:24:46;3.30;54.10
75819;DHT22;64453;51.944;9.796;2024-03-08T04:27:14;3.60;54.10
75819;DHT22;64453;51.944;9.796;2024-03-08T04:29:41;3.80;54.00
75819;DHT22;64453;51.944;9.796;2024-03-08T04:32:09;3.80;53.50
75819;DHT22;64453;51.944;9.796;2024-03-08T04:34:37;3.60;53.10
75819;DHT22;64453;51.944;9.796;2024-03-08T04:37:04;3.50;53.90
75819;DHT22;64453;51.944;9.796;2024-03-08T04:39:36;3.30;53.80
75819;DHT22;64453;51.944;9.796;2024-03-08T04:42:03;3.50;54.20
75819;DHT22;64453;51.944;9.796;2024-03-08T04:44:35;3.30;53.90
75819;DHT22;64453;51.944;9.796;2024-03-08T04:47:03;3.30;54.40
75819;DHT22;64453;51.944;9.796;2024-03-08T04:49:31;3.60;54.00
75819;DHT22;64453;51.944;9.796;2024-03-08T04:52:01;3.50;53.60
75819;DHT22;64453;51.944;9.796;2024-03-08T04:54:29;3.80;53.70
75819;DHT22;64453;51.944;9.796;2024-03-08T04:56:56;3.70;53.40
75819;DHT22;64453;51.944;9.796;2024-03-08T04:59:25;3.70;53.40
75819;DHT22;64453;51.944;9.796;2024-03-08T05:01:52;3.50;53.90
75819;DHT22;64453;51.944;9.796;2024-03-08T05:04:19;3.30;53.60
75819;DHT22;64453;51.944;9.796;2024-03-08T05:06:46;3.30;54.10
75819;DHT22;64453;51.944;9.796;2024-03-08T05:09:15;3.10;54.20
75819;DHT22;64453;51.944;9.796;2024-03-08T05:11:43;3.00;54.70
75819;DHT22;64453;51.944;9.796;2024-03-08T05:14:11;2.90;54.80
75819;DHT22;64453;51.944;9.796;2024-03-08T05:16:42;3.20;54.90
75819;DHT22;64453;51.944;9.796;2024-03-08T05:19:09;3.40;54.30
75819;DHT22;64453;51.944;9.796;2024-03-08T05:21:36;3.60;54.20
75819;DHT22;64453;51.944;9.796;2024-03-08T05:24:03;3.60;54.70
75819;DHT22;64453;51.944;9.796;2024-03-08T05:26:32;3.60;53.90
75819;DHT22;64453;51.944;9.796;2024-03-08T05:28:59;3.40;53.50
75819;DHT22;64453;51.944;9.796;2024-03-08T05:31:26;3.40;53.70
75819;DHT22;64453;51.944;9.796;2024-03-08T05:33:54;3.50;53.80
75819;DHT22;64453;51.944;9.796;2024-03-08T05:36:21;3.50;53.60
75819;DHT22;64453;51.944;9.796;2024-03-08T05:38:48;3.50;53.60
75819;DHT22;64453;51.944;9.796;2024-03-08T05:41:16;3.50;53.50
75819;DHT22;64453;51.944;9.796;2024-03-08T05:43:45;3.50;53.60
75819;DHT22;64453;51.944;9.796;2024-03-08T05:46:15;3.60;53.50
75819;DHT22;64453;51.944;9.796;2024-03-08T05:48:43;3.60;53.30
75819;DHT22;64453;51.944;9.796;2024-03-08T05:51:10;3.60;53.20
75819;DHT22;64453;51.944;9.796;2024-03-08T05:53:37;3.70;53.10
75819;DHT22;64453;51.944;9.796;2024-03-08T05:56:05;3.50;53.00
75819;DHT22;64453;51.944;9.796;2024-03-08T05:58:32;3.20;53.20
75819;DHT22;64453;51.944;9.796;2024-03-08T06:01:00;3.10;53.70
75819;DHT22;64453;51.944;9.796;2024-03-08T06:03:27;3.00;53.80
75819;DHT22;64453;51.944;9.796;2024-03-08T06:05:55;3.30;54.10
75819;DHT22;64453;51.944;9.796;2024-03-08T06:08:22;3.30;53.70
75819;DHT22;64453;51.944;9.796;2024-03-08T06:10:55;3.30;53.70
75819;DHT22;64453;51.944;9.796;2024-03-08T06:13:22;3.10;53.80
75819;DHT22;64453;51.944;9.796;2024-03-08T06:15:49;2.90;54.10
75819;DHT22;64453;51.944;9.796;2024-03-08T06:18:17;3.10;54.70
75819;DHT22;64453;51.944;9.796;2024-03-08T06:20:44;3.00;54.60
75819;DHT22;64453;51.944;9.796;2024-03-08T06:23:11;3.20;54.70
75819;DHT22;64453;51.944;9.796;2024-03-08T06:25:39;3.20;54.30
75819;DHT22;64453;51.944;9.796;2024-03-08T06:28:07;3.20;54.40
75819;DHT22;64453;51.944;9.796;2024-03-08T06:30:33;3.20;54.70
75819;DHT22;64453;51.944;9.796;2024-03-08T06:33:00;3.30;54.70
75819;DHT22;64453;51.944;9.796;2024-03-08T06:35:29;3.20;54.70
75819;DHT22;64453;51.944;9.796;2024-03-08T06:37:57;3.30;55.10
75819;DHT22;64453;51.944;9.796;2024-03-08T06:40:24;3.30;55.40
75819;DHT22;64453;51.944;9.796;2024-03-08T06:42:51;3.30;55.40
75819;DHT22;64453;51.944;9.796;2024-03-08T06:45:18;3.30;55.30
75819;DHT22;64453;51.944;9.796;2024-03-08T06:47:46;3.30;55.80
75819;DHT22;64453;51.944;9.796;2024-03-08T06:50:13;3.30;55.70
75819;DHT22;64453;51.944;9.796;2024-03-08T06:52:42;3.20;56.00
75819;DHT22;64453;51.944;9.796;2024-03-08T06:55:10;3.20;56.50
75819;DHT22;64453;51.944;9.796;2024-03-08T06:57:37;3.20;56.80
75819;DHT22;64453;51.944;9.796;2024-03-08T07:00:07;3.30;56.70
75819;DHT22;64453;51.944;9.796;2024-03-08T07:02:37;3.30;56.60
75819;DHT22;64453;51.944;9.796;2024-03-08T07:05:05;3.30;57.10
75819;DHT22;64453;51.944;9.796;2024-03-08T07:07:35;3.30;57.30
75819;DHT22;64453;51.944;9.796;2024-03-08T07:10:04;3.20;57.60
75819;DHT22;64453;51.944;9.796;2024-03-08T07:12:36;3.40;57.60
75819;DHT22;64453;51.944;9.796;2024-03-08T07:15:04;3.70;57.60
75819;DHT22;64453;51.944;9.796;2024-03-08T07:17:32;3.70;57.60
75819;DHT22;64453;51.944;9.796;2024-03-08T07:20:00;3.90;57.70
75819;DHT22;64453;51.944;9.796;2024-03-08T07:22:32;4.00;57.60
75819;DHT22;64453;51.944;9.796;2024-03-08T07:24:59;4.20;57.70
75819;DHT22;64453;51.944;9.796;2024-03-08T07:27:47;4.40;57.80
75819;DHT22;64453;51.944;9.796;2024-03-08T07:30:14;4.20;57.70
75819;DHT22;64453;51.944;9.796;2024-03-08T07:33:04;4.50;57.90
75819;DHT22;64453;51.944;9.796;2024-03-08T07:35:32;4.40;57.70
75819;DHT22;64453;51.944;9.796;2024-03-08T07:38:03;4.50;57.70
75819;DHT22;64453;51.944;9.796;2024-03-08T07:40:31;4.30;57.50
75819;DHT22;64453;51.944;9.796;2024-03-08T07:42:59;4.50;57.70
75819;DHT22;64453;51.944;9.796;2024-03-08T07:45:26;4.50;57.60
75819;DHT22;64453;51.944;9.796;2024-03-08T07:47:53;4.60;57.70
75819;DHT22;64453;51.944;9.796;2024-03-08T07:50:21;4.60;57.80
75819;DHT22;64453;51.944;9.796;2024-03-08T07:52:48;4.70;57.90
75819;DHT22;64453;51.944;9.796;2024-03-08T07:55:15;4.60;57.80
75819;DHT22;64453;51.944;9.796;2024-03-08T07:57:42;4.80;57.70
75819;DHT22;64453;51.944;9.796;2024-03-08T08:00:12;4.80;57.80
75819;DHT22;64453;51.944;9.796;2024-03-08T08:02:43;4.80;58.10
75819;DHT22;64453;51.944;9.796;2024-03-08T08:05:11;4.70;58.10
75819;DHT22;64453;51.944;9.796;2024-03-08T08:07:39;4.80;58.30
75819;DHT22;64453;51.944;9.796;2024-03-08T08:10:09;4.90;58.30
75819;DHT22;64453;51.944;9.796;2024-03-08T08:12:42;4.90;58.40
75819;DHT22;64453;51.944;9.796;2024-03-08T08:15:10;5.00;58.60
75819;DHT22;64453;51.944;9.796;2024-03-08T08:17:38;5.00;58.60
75819;DHT22;64453;51.944;9.796;2024-03-08T08:20:05;5.20;58.70
75819;DHT22;64453;51.944;9.796;2024-03-08T08:22:33;5.30;58.70
75819;DHT22;64453;51.944;9.796;2024-03-08T08:25:00;5.50;58.80
75819;DHT22;64453;51.944;9.796;2024-03-08T08:27:27;5.50;58.80
75819;DHT22;64453;51.944;9.796;2024-03-08T08:29:54;5.70;58.90
75819;DHT22;64453;51.944;9.796;2024-03-08T08:32:23;5.80;59.10
75819;DHT22;64453;51.944;9.796;2024-03-08T08:34:50;5.90;59.40
75819;DHT22;64453;51.944;9.796;2024-03-08T08:37:17;5.90;59.30
75819;DHT22;64453;51.944;9.796;2024-03-08T08:39:44;5.90;59.30
75819;DHT22;64453;51.944;9.796;2024-03-08T08:42:11;5.90;59.20
75819;DHT22;64453;51.944;9.796;2024-03-08T08:44:38;6.00;59.30
75819;DHT22;64453;51.944;9.796;2024-03-08T08:47:05;6.10;59.30
75819;DHT22;64453;51.944;9.796;2024-03-08T08:49:34;6.10;59.50
75819;DHT22;64453;51.944;9.796;2024-03-08T08:52:01;6.20;59.80
75819;DHT22;64453;51.944;9.796;2024-03-08T08:54:28;6.20;60.20
75819;DHT22;64453;51.944;9.796;2024-03-08T08:56:55;6.30;60.30
75819;DHT22;64453;51.944;9.796;2024-03-08T08:59:22;6.30;60.40
75819;DHT22;64453;51.944;9.796;2024-03-08T09:01:50;6.40;60.30
75819;DHT22;64453;51.944;9.796;2024-03-08T09:04:19;6.40;60.00
75819;DHT22;64453;51.944;9.796;2024-03-08T09:06:49;6.50;60.00
75819;DHT22;64453;51.944;9.796;2024-03-08T09:09:16;6.60;60.10
75819;DHT22;64453;51.944;9.796;2024-03-08T09:11:44;6.60;59.80
75819;DHT22;64453;51.944;9.796;2024-03-08T09:14:11;6.60;59.40
75819;DHT22;64453;51.944;9.796;2024-03-08T09:16:39;6.60;59.40
75819;DHT22;64453;51.944;9.796;2024-03-08T09:19:06;6.70;59.70
75819;DHT22;64453;51.944;9.796;2024-03-08T09:21:36;6.70;59.20
75819;DHT22;64453;51.944;9.796;2024-03-08T09:24:05;6.80;59.20
75819;DHT22;64453;51.944;9.796;2024-03-08T09:26:33;6.80;59.20
75819;DHT22;64453;51.944;9.796;2024-03-08T09:29:00;6.90;59.60
75819;DHT22;64453;51.944;9.796;2024-03-08T09:31:27;6.90;59.60
75819;DHT22;64453;51.944;9.796;2024-03-08T09:33:53;7.00;59.60
75819;DHT22;64453;51.944;9.796;2024-03-08T09:36:20;7.00;59.20
75819;DHT22;64453;51.944;9.796;2024-03-08T09:38:47;7.00;59.20
75819;DHT22;64453;51.944;9.796;2024-03-08T09:41:17;7.10;59.10
75819;DHT22;64453;51.944;9.796;2024-03-08T09:43:44;7.10;59.00
75819;DHT22;64453;51.944;9.796;2024-03-08T09:46:12;7.10;59.30
75819;DHT22;64453;51.944;9.796;2024-03-08T09:48:41;7.20;59.20
75819;DHT22;64453;51.944;9.796;2024-03-08T09:51:08;7.20;59.40
75819;DHT22;64453;51.944;9.796;2024-03-08T09:53:39;7.30;59.50
75819;DHT22;64453;51.944;9.796;2024-03-08T09:56:07;7.40;59.40
75819;DHT22;64453;51.944;9.796;2024-03-08T09:58:36;7.40;58.50
75819;DHT22;64453;51.944;9.796;2024-03-08T10:01:16;7.40;59.30
75819;DHT22;64453;51.944;9.796;2024-03-08T10:03:44;7.50;59.40
75819;DHT22;64453;51.944;9.796;2024-03-08T10:06:13;7.50;59.10
75819;DHT22;64453;51.944;9.796;2024-03-08T10:08:40;7.50;59.00
75819;DHT22;64453;51.944;9.796;2024-03-08T10:11:08;7.50;58.70
75819;DHT22;64453;51.944;9.796;2024-03-08T10:13:38;7.60;59.10
75819;DHT22;64453;51.944;9.796;2024-03-08T10:16:07;7.70;59.70
75819;DHT22;64453;51.944;9.796;2024-03-08T10:18:34;7.60;58.20
75819;DHT22;64453;51.944;9.796;2024-03-08T10:21:05;7.60;58.80
75819;DHT22;64453;51.944;9.796;2024-03-08T10:23:34;7.60;57.50
75819;DHT22;64453;51.944;9.796;2024-03-08T10:26:11;7.90;57.90
75819;DHT22;64453;51.944;9.796;2024-03-08T10:28:41;7.80;57.70
75819;DHT22;64453;51.944;9.796;2024-03-08T10:31:09;7.80;57.80
75819;DHT22;64453;51.944;9.796;2024-03-08T10:33:37;7.90;58.30
75819;DHT22;64453;51.944;9.796;2024-03-08T10:36:07;7.90;58.30
75819;DHT22;64453;51.944;9.796;2024-03-08T10:38:36;7.90;58.20
75819;DHT22;64453;51.944;9.796;2024-03-08T10:41:05;7.90;57.60
75819;DHT22;64453;51.944;9.796;2024-03-08T10:43:40;8.00;58.10
75819;DHT22;64453;51.944;9.796;2024-03-08T10:46:25;7.70;56.70
75819;DHT22;64453;51.944;9.796;2024-03-08T10:48:58;7.90;57.90
75819;DHT22;64453;51.944;9.796;2024-03-08T10:51:29;8.00;58.30
75819;DHT22;64453;51.944;9.796;2024-03-08T10:53:57;8.10;58.30
75819;DHT22;64453;51.944;9.796;2024-03-08T10:56:28;8.10;58.10
75819;DHT22;64453;51.944;9.796;2024-03-08T10:58:57;8.10;57.90
75819;DHT22;64453;51.944;9.796;2024-03-08T11:01:24;8.20;57.30
75819;DHT22;64453;51.944;9.796;2024-03-08T11:03:51;8.20;57.10
75819;DHT22;64453;51.944;9.796;2024-03-08T11:06:29;8.30;57.30
75819;DHT22;64453;51.944;9.796;2024-03-08T11:08:57;8.30;57.20
75819;DHT22;64453;51.944;9.796;2024-03-08T11:11:29;8.30;57.40
75819;DHT22;64453;51.944;9.796;2024-03-08T11:13:58;8.30;56.60
75819;DHT22;64453;51.944;9.796;2024-03-08T11:16:40;8.40;57.10
75819;DHT22;64453;51.944;9.796;2024-03-08T11:19:24;8.40;56.90
75819;DHT22;64453;51.944;9.796;2024-03-08T11:21:58;8.50;57.10
75819;DHT22;64453;51.944;9.796;2024-03-08T11:24:25;8.50;57.10
75819;DHT22;64453;51.944;9.796;2024-03-08T11:26:57;8.50;56.80
75819;DHT22;64453;51.944;9.796;2024-03-08T11:29:36;8.60;56.60
75819;DHT22;64453;51.944;9.796;2024-03-08T11:32:10;8.60;56.40
75819;DHT22;64453;51.944;9.796;2024-03-08T11:34:38;8.70;57.30
75819;DHT22;64453;51.944;9.796;2024-03-08T11:37:12;8.70;56.90
75819;DHT22;64453;51.944;9.796;2024-03-08T11:39:41;8.80;57.10
75819;DHT22;64453;51.944;9.796;2024-03-08T11:42:14;8.80;56.90
75819;DHT22;64453;51.944;9.796;2024-03-08T11:44:44;8.80;57.10
75819;DHT22;64453;51.944;9.796;2024-03-08T11:47:11;8.90;56.70
75819;DHT22;64453;51.944;9.796;2024-03-08T11:49:38;9.00;56.60
75819;DHT22;64453;51.944;9.796;2024-03-08T11:52:11;9.00;56.60
75819;DHT22;64453;51.944;9.796;2024-03-08T11:54:39;9.10;56.40
75819;DHT22;64453;51.944;9.796;2024-03-08T11:57:06;9.00;56.60
75819;DHT22;64453;51.944;9.796;2024-03-08T11:59:35;9.10;56.30
75819;DHT22;64453;51.944;9.796;2024-03-08T12:02:05;9.20;56.80
75819;DHT22;64453;51.944;9.796;2024-03-08T12:04:35;9.20;56.90
75819;DHT22;64453;51.944;9.796;2024-03-08T12:07:03;9.30;57.40
75819;DHT22;64453;51.944;9.796;2024-03-08T12:09:35;9.30;56.80
75819;DHT22;64453;51.944;9.796;2024-03-08T12:12:03;9.30;56.40
75819;DHT22;64453;51.944;9.796;2024-03-08T12:14:31;9.30;56.40
75819;DHT22;64453;51.944;9.796;2024-03-08T12:16:58;9.40;56.60
75819;DHT22;64453;51.944;9.796;2024-03-08T12:19:28;9.50;56.90
75819;DHT22;64453;51.944;9.796;2024-03-08T12:21:55;9.50;57.00
75819;DHT22;64453;51.944;9.796;2024-03-08T12:24:22;9.60;57.00
75819;DHT22;64453;51.944;9.796;2024-03-08T12:26:49;9.60;57.20
75819;DHT22;64453;51.944;9.796;2024-03-08T12:29:18;9.70;57.40
75819;DHT22;64453;51.944;9.796;2024-03-08T12:31:49;9.70;57.60
75819;DHT22;64453;51.944;9.796;2024-03-08T12:34:18;9.70;57.20
75819;DHT22;64453;51.944;9.796;2024-03-08T12:36:47;9.80;57.10
75819;DHT22;64453;51.944;9.796;2024-03-08T12:39:16;9.80;57.10
75819;DHT22;64453;51.944;9.796;2024-03-08T12:41:48;9.90;57.60
75819;DHT22;64453;51.944;9.796;2024-03-08T12:44:17;9.90;56.80
75819;DHT22;64453;51.944;9.796;2024-03-08T12:46:44;9.90;56.80
75819;DHT22;64453;51.944;9.796;2024-03-08T12:49:11;10.00;56.00
75819;DHT22;64453;51.944;9.796;2024-03-08T12:51:39;10.10;55.40
75819;DHT22;64453;51.944;9.796;2024-03-08T12:54:08;10.10;55.60
75819;DHT22;64453;51.944;9.796;2024-03-08T12:56:35;10.20;55.50
75819;DHT22;64453;51.944;9.796;2024-03-08T12:59:03;10.20;55.50
75819;DHT22;64453;51.944;9.796;2024-03-08T13:01:31;10.30;55.50
75819;DHT22;64453;51.944;9.796;2024-03-08T13:03:58;10.40;55.20
75819;DHT22;64453;51.944;9.796;2024-03-08T13:06:27;10.40;55.30
75819;DHT22;64453;51.944;9.796;2024-03-08T13:08:54;10.50;55.30
75819;DHT22;64453;51.944;9.796;2024-03-08T13:11:23;10.50;55.30
75819;DHT22;64453;51.944;9.796;2024-03-08T13:13:50;10.60;55.10
75819;DHT22;64453;51.944;9.796;2024-03-08T13:16:18;10.60;54.80
75819;DHT22;64453;51.944;9.796;2024-03-08T13:18:45;10.70;54.70
75819;DHT22;64453;51.944;9.796;2024-03-08T13:21:14;10.70;54.70
75819;DHT22;64453;51.944;9.796;2024-03-08T13:23:45;10.80;54.70
75819;DHT22;64453;51.944;9.796;2024-03-08T13:26:15;10.80;54.60
75819;DHT22;64453;51.944;9.796;2024-03-08T13:28:45;10.80;54.60
75819;DHT22;64453;51.944;9.796;2024-03-08T13:31:14;10.90;54.60
75819;DHT22;64453;51.944;9.796;2024-03-08T13:33:42;10.90;54.70
75819;DHT22;64453;51.944;9.796;2024-03-08T13:36:13;10.90;54.20
75819;DHT22;64453;51.944;9.796;2024-03-08T13:38:42;11.00;54.90
75819;DHT22;64453;51.944;9.796;2024-03-08T13:41:10;11.00;54.60
75819;DHT22;64453;51.944;9.796;2024-03-08T13:43:40;11.10;54.20
75819;DHT22;64453;51.944;9.796;2024-03-08T13:46:08;11.00;54.40
75819;DHT22;64453;51.944;9.796;2024-03-08T13:48:36;11.20;54.40
75819;DHT22;64453;51.944;9.796;2024-03-08T13:51:04;11.30;54.30
75819;DHT22;64453;51.944;9.796;2024-03-08T13:53:32;11.40;54.50
75819;DHT22;64453;51.944;9.796;2024-03-08T13:56:03;11.40;54.40
75819;DHT22;64453;51.944;9.796;2024-03-08T13:58:31;11.50;54.00
75819;DHT22;64453;51.944;9.796;2024-03-08T14:00:58;11.50;54.00
75819;DHT22;64453;51.944;9.796;2024-03-08T14:03:27;11.60;54.40
75819;DHT22;64453;51.944;9.796;2024-03-08T14:05:54;11.60;53.50
75819;DHT22;64453;51.944;9.796;2024-03-08T14:08:22;11.60;53.50
75819;DHT22;64453;51.944;9.796;2024-03-08T14:10:50;11.70;53.90
75819;DHT22;64453;51.944;9.796;2024-03-08T14:13:19;11.70;53.80
75819;DHT22;64453;51.944;9.796;2024-03-08T14:15:46;11.70;53.60
75819;DHT22;64453;51.944;9.796;2024-03-08T14:18:13;11.80;53.40
75819;DHT22;64453;51.944;9.796;2024-03-08T14:20:42;11.90;53.40
75819;DHT22;64453;51.944;9.796;2024-03-08T14:23:09;11.90;53.20
75819;DHT22;64453;51.944;9.796;2024-03-08T14:25:38;11.90;53.10
75819;DHT22;64453;51.944;9.796;2024-03-08T14:28:05;11.90;53.10
75819;DHT22;64453;51.944;9.796;2024-03-08T14:30:33;11.70;53.20
75819;DHT22;64453;51.944;9.796;2024-03-08T14:33:04;11.90;53.30
75819;DHT22;64453;51.944;9.796;2024-03-08T14:35:34;11.90;53.40
75819;DHT22;64453;51.944;9.796;2024-03-08T14:38:03;11.90;53.00
75819;DHT22;64453;51.944;9.796;2024-03-08T14:40:33;11.90;52.80
75819;DHT22;64453;51.944;9.796;2024-03-08T14:43:01;11.90;52.90
75819;DHT22;64453;51.944;9.796;2024-03-08T14:45:29;11.90;52.90
75819;DHT22;64453;51.944;9.796;2024-03-08T14:47:57;12.00;53.20
75819;DHT22;64453;51.944;9.796;2024-03-08T14:50:25;12.00;52.90
75819;DHT22;64453;51.944;9.796;2024-03-08T14:52:52;12.00;52.40
75819;DHT22;64453;51.944;9.796;2024-03-08T14:55:21;12.00;52.00
75819;DHT22;64453;51.944;9.796;2024-03-08T14:57:48;12.10;52.10
75819;DHT22;64453;51.944;9.796;2024-03-08T15:00:18;12.20;51.80
75819;DHT22;64453;51.944;9.796;2024-03-08T15:02:52;12.20;52.00
75819;DHT22;64453;51.944;9.796;2024-03-08T15:05:20;12.20;51.80
75819;DHT22;64453;51.944;9.796;2024-03-08T15:07:52;12.20;51.60
75819;DHT22;64453;51.944;9.796;2024-03-08T15:10:20;12.40;51.70
75819;DHT22;64453;51.944;9.796;2024-03-08T15:12:50;12.40;51.30
75819;DHT22;64453;51.944;9.796;2024-03-08T15:15:21;12.50;51.30
75819;DHT22;64453;51.944;9.796;2024-03-08T15:17:50;12.50;51.20
75819;DHT22;64453;51.944;9.796;2024-03-08T15:20:17;12.60;51.20
75819;DHT22;64453;51.944;9.796;2024-03-08T15:22:50;12.70;50.80
75819;DHT22;64453;51.944;9.796;2024-03-08T15:25:20;12.70;50.80
75819;DHT22;64453;51.944;9.796;2024-03-08T15:27:51;12.80;51.00
75819;DHT22;64453;51.944;9.796;2024-03-08T15:30:19;12.90;51.10
75819;DHT22;64453;51.944;9.796;2024-03-08T15:32:48;12.90;50.40
75819;DHT22;64453;51.944;9.796;2024-03-08T15:35:16;12.90;50.50
75819;DHT22;64453;51.944;9.796;2024-03-08T15:37:44;12.90;50.30
75819;DHT22;64453;51.944;9.796;2024-03-08T15:40:12;13.00;50.30
75819;DHT22;64453;51.944;9.796;2024-03-08T15:42:48;13.00;50.30
75819;DHT22;64453;51.944;9.796;2024-03-08T15:45:16;13.10;49.90
75819;DHT22;64453;51.944;9.796;2024-03-08T15:47:43;13.60;50.10
75819;DHT22;64453;51.944;9.796;2024-03-08T15:50:10;14.10;49.00